Lubbock Preston Smith International Airport

Date: 2024-06-11 08:22:00Z

Type: SPECI

Weather: Thunderstorms

Winds: 330° at 8 kts

Visibility: 10+

Ceiling (AGL FT): Clouds BROKEN at 1000, OVERCAST at 3000, OVERCAST at 5500, BROKEN at 7000

RAW METAR: KLBB 110822Z 33008KT 10SM TS BKN010CB OVC030 18/17 A2997 RMK AO2 FRQ LTGICCG SE-S TS SE-S MOV E T01830172 $

project-image